Time;durP1;ratioP1;P1;durP2;ratioP2;P2;SDS_P1;SDS_P2;PMS_P1;PMS_P2;Temp;Humidity;BMP_temperature;BMP_pressure;BME280_temperature;BME280_humidity;BME280_pressure;Samples;Min_cycle;Max_cycle;Signal;HPM_P1;HPM_P2
2022/11/14 00:01:15;;;;;;;;;;;5.70;99.90;;;;;;5100356;27;20353;-63
2022/11/14 00:03:41;;;;;;;;;;;5.70;99.90;;;;;;5076107;27;19927;-63
2022/11/14 00:06:07;;;;;;;;;;;5.70;99.90;;;;;;5084062;28;19923;-63
2022/11/14 00:08:32;;;;;;;;;;;5.80;99.90;;;;;;5093463;28;20358;-62
2022/11/14 00:10:58;;;;;;;;;;;5.80;99.90;;;;;;5096666;28;20297;-62
2022/11/14 00:13:24;;;;;;;;;;;5.80;99.90;;;;;;5091245;27;20027;-63
2022/11/14 00:15:53;;;;;;;;;;;5.80;99.90;;;;;;5101341;28;19928;-62
2022/11/14 00:18:18;;;;;;;;;;;5.90;99.90;;;;;;5093721;28;20434;-62
2022/11/14 00:20:46;;;;;;;;;;;5.80;99.90;;;;;;5096330;28;20015;-63
2022/11/14 00:23:12;;;;;;;;;;;5.90;99.90;;;;;;5093201;28;19988;-63
2022/11/14 00:25:37;;;;;;;;;;;5.90;99.90;;;;;;5102012;28;20029;-63
2022/11/14 00:28:03;;;;;;;;;;;6.00;99.90;;;;;;5101080;28;19928;-63
2022/11/14 00:30:28;;;;;;;;;;;5.90;99.90;;;;;;5099359;28;20014;-62
2022/11/14 00:32:54;;;;;;;;;;;6.00;99.90;;;;;;5095601;27;19924;-63
2022/11/14 00:35:19;;;;;;;;;;;6.00;99.90;;;;;;5099600;28;19993;-62
2022/11/14 00:37:45;;;;;;;;;;;6.10;99.90;;;;;;5105883;28;19927;-63
2022/11/14 00:40:10;;;;;;;;;;;6.10;99.90;;;;;;5104211;28;20308;-63
2022/11/14 00:42:36;;;;;;;;;;;6.10;99.90;;;;;;5095506;28;19920;-62
2022/11/14 00:45:02;;;;;;;;;;;6.10;99.90;;;;;;5100234;28;19971;-63
2022/11/14 00:47:27;;;;;;;;;;;6.10;99.90;;;;;;5099828;28;19965;-62
2022/11/14 00:49:53;;;;;;;;;;;6.10;99.90;;;;;;5102882;28;20333;-62
2022/11/14 00:52:18;;;;;;;;;;;6.20;99.90;;;;;;5095411;28;20021;-63
2022/11/14 00:54:44;;;;;;;;;;;6.10;99.90;;;;;;5094069;28;20412;-63
2022/11/14 00:57:09;;;;;;;;;;;6.20;99.90;;;;;;5092874;28;19967;-63
2022/11/14 00:59:35;;;;;;;;;;;6.20;99.90;;;;;;5090700;28;19924;-63
2022/11/14 01:02:00;;;;;;;;;;;6.20;99.90;;;;;;5100398;28;19926;-63
2022/11/14 01:04:26;;;;;;;;;;;6.20;99.90;;;;;;5101578;28;20166;-62
2022/11/14 01:06:51;;;;;;;;;;;6.20;99.90;;;;;;5093089;28;19920;-64
2022/11/14 01:09:17;;;;;;;;;;;6.20;99.90;;;;;;5103805;28;20674;-63
2022/11/14 01:11:42;;;;;;;;;;;6.20;99.90;;;;;;5083391;28;19930;-63
2022/11/14 01:14:08;;;;;;;;;;;6.20;99.90;;;;;;5089325;28;19926;-63
2022/11/14 01:16:34;;;;;;;;;;;6.20;99.90;;;;;;5097966;28;19920;-63
2022/11/14 01:19:00;;;;;;;;;;;6.20;99.90;;;;;;5076903;28;19931;-63
2022/11/14 01:21:26;;;;;;;;;;;6.20;99.90;;;;;;5093181;28;20402;-63
2022/11/14 01:23:52;;;;;;;;;;;6.20;99.90;;;;;;5087730;28;19927;-62
2022/11/14 01:26:17;;;;;;;;;;;6.20;99.90;;;;;;5100771;28;20431;-63
2022/11/14 01:28:43;;;;;;;;;;;6.10;99.90;;;;;;5084110;28;19930;-62
2022/11/14 01:31:11;;;;;;;;;;;6.10;99.90;;;;;;5098231;28;19920;-64
2022/11/14 01:33:36;;;;;;;;;;;6.20;99.90;;;;;;5080820;28;19924;-62
2022/11/14 01:36:02;;;;;;;;;;;6.10;99.90;;;;;;5083373;28;19951;-63
2022/11/14 01:38:28;;;;;;;;;;;6.10;99.90;;;;;;5101593;27;19943;-63
2022/11/14 01:40:53;;;;;;;;;;;6.10;99.90;;;;;;5082062;27;19924;-63
2022/11/14 01:43:18;;;;;;;;;;;6.00;99.90;;;;;;5096137;27;20048;-62
2022/11/14 01:45:50;;;;;;;;;;;5.90;99.90;;;;;;5102238;27;19927;-63
2022/11/14 01:48:22;;;;;;;;;;;5.90;99.90;;;;;;5099097;27;20393;-63
2022/11/14 01:50:50;;;;;;;;;;;5.90;99.90;;;;;;5094730;27;19967;-62
2022/11/14 01:53:15;;;;;;;;;;;5.80;99.90;;;;;;5099996;27;19950;-63
2022/11/14 01:55:41;;;;;;;;;;;5.80;99.90;;;;;;5085544;28;19923;-63
2022/11/14 01:58:06;;;;;;;;;;;5.80;99.90;;;;;;5083466;27;19927;-63
2022/11/14 02:00:32;;;;;;;;;;;5.80;99.90;;;;;;5087804;28;19975;-62
2022/11/14 02:02:59;;;;;;;;;;;5.80;99.90;;;;;;5080121;28;20068;-63
2022/11/14 02:05:25;;;;;;;;;;;5.70;99.90;;;;;;5084337;27;19927;-63
2022/11/14 02:07:50;;;;;;;;;;;5.70;99.90;;;;;;5103203;27;19927;-62
2022/11/14 02:10:18;;;;;;;;;;;5.70;99.90;;;;;;5088212;27;19931;-62
2022/11/14 02:12:44;;;;;;;;;;;5.60;99.90;;;;;;5102831;27;20279;-62
2022/11/14 02:15:09;;;;;;;;;;;5.60;99.90;;;;;;5090049;28;19919;-63
2022/11/14 02:17:35;;;;;;;;;;;5.50;99.90;;;;;;5105787;27;19928;-62
2022/11/14 02:20:10;;;;;;;;;;;5.50;99.90;;;;;;5102013;27;19927;-62
2022/11/14 02:22:36;;;;;;;;;;;5.50;99.90;;;;;;5093808;27;20321;-62
2022/11/14 02:25:01;;;;;;;;;;;5.50;99.90;;;;;;5099316;27;19920;-63
2022/11/14 02:27:28;;;;;;;;;;;5.50;99.90;;;;;;5099586;28;20574;-62
2022/11/14 02:29:53;;;;;;;;;;;5.50;99.90;;;;;;5100426;27;20382;-63
2022/11/14 02:32:19;;;;;;;;;;;5.60;99.90;;;;;;5100510;28;19928;-63
2022/11/14 02:34:44;;;;;;;;;;;5.60;99.90;;;;;;5091050;28;19920;-63
2022/11/14 02:37:09;;;;;;;;;;;5.60;99.90;;;;;;5121065;27;19920;-63
2022/11/14 02:39:35;;;;;;;;;;;5.60;99.90;;;;;;5084381;28;20278;-63
2022/11/14 02:42:01;;;;;;;;;;;5.60;99.90;;;;;;5103364;27;19963;-63
2022/11/14 02:44:26;;;;;;;;;;;5.70;99.90;;;;;;5101494;27;19927;-63
2022/11/14 02:46:52;;;;;;;;;;;5.60;99.90;;;;;;5106768;28;19927;-63
2022/11/14 02:49:17;;;;;;;;;;;5.70;99.90;;;;;;5090314;28;19920;-62
2022/11/14 02:51:42;;;;;;;;;;;5.70;99.90;;;;;;5086937;28;19928;-63
2022/11/14 02:54:08;;;;;;;;;;;5.60;99.90;;;;;;5107701;27;20441;-63
2022/11/14 02:56:34;;;;;;;;;;;5.60;99.90;;;;;;5077607;28;19924;-62
2022/11/14 02:58:59;;;;;;;;;;;5.70;99.90;;;;;;5105247;27;20406;-63
2022/11/14 03:01:24;;;;;;;;;;;5.60;99.90;;;;;;5092158;28;19924;-64
2022/11/14 03:03:51;;;;;;;;;;;5.60;99.90;;;;;;5106915;28;20355;-63
2022/11/14 03:06:16;;;;;;;;;;;5.60;99.90;;;;;;5092688;28;19926;-63
2022/11/14 03:08:42;;;;;;;;;;;5.70;99.90;;;;;;5094585;27;20300;-63
2022/11/14 03:11:08;;;;;;;;;;;5.60;99.90;;;;;;5101815;27;19924;-63
2022/11/14 03:13:34;;;;;;;;;;;5.70;99.90;;;;;;5103566;27;21240;-63
2022/11/14 03:16:06;;;;;;;;;;;5.60;99.90;;;;;;5104943;27;20389;-63
2022/11/14 03:18:31;;;;;;;;;;;5.60;99.90;;;;;;5105535;28;20332;-63
2022/11/14 03:21:03;;;;;;;;;;;5.60;99.90;;;;;;5102545;28;19920;-63
2022/11/14 03:23:28;;;;;;;;;;;5.60;99.90;;;;;;5104592;28;19920;-63
2022/11/14 03:25:57;;;;;;;;;;;5.60;99.90;;;;;;5102785;28;20439;-63
2022/11/14 03:28:23;;;;;;;;;;;5.60;99.90;;;;;;5102992;28;19928;-63
2022/11/14 03:30:48;;;;;;;;;;;5.60;99.90;;;;;;5097502;27;19920;-63
2022/11/14 03:33:14;;;;;;;;;;;5.60;99.90;;;;;;5107643;27;19974;-63
2022/11/14 03:35:41;;;;;;;;;;;5.50;99.90;;;;;;5103501;27;19920;-62
2022/11/14 03:38:06;;;;;;;;;;;5.50;99.90;;;;;;5109378;27;20204;-62
2022/11/14 03:40:32;;;;;;;;;;;5.50;99.90;;;;;;5083854;28;21931;-62
2022/11/14 03:42:57;;;;;;;;;;;5.50;99.90;;;;;;5104431;27;19919;-63
2022/11/14 03:45:23;;;;;;;;;;;5.50;99.90;;;;;;5106610;27;19939;-62
2022/11/14 03:47:48;;;;;;;;;;;5.40;99.90;;;;;;5100777;28;20014;-62
2022/11/14 03:50:14;;;;;;;;;;;5.40;99.90;;;;;;5108208;27;19965;-63
2022/11/14 03:52:39;;;;;;;;;;;5.30;99.90;;;;;;5097780;28;20374;-62
2022/11/14 03:55:05;;;;;;;;;;;5.30;99.90;;;;;;5106409;27;20002;-63
2022/11/14 03:57:30;;;;;;;;;;;5.20;99.90;;;;;;5103343;27;19923;-62
2022/11/14 03:59:56;;;;;;;;;;;5.20;99.90;;;;;;5105684;27;20374;-62
2022/11/14 04:02:21;;;;;;;;;;;5.30;99.90;;;;;;5094843;28;19928;-63
2022/11/14 04:04:47;;;;;;;;;;;5.20;99.90;;;;;;5098345;28;19989;-63
2022/11/14 04:07:12;;;;;;;;;;;5.20;99.90;;;;;;5095587;27;20011;-62
2022/11/14 04:09:38;;;;;;;;;;;5.20;99.90;;;;;;5086293;28;20378;-63
2022/11/14 04:12:03;;;;;;;;;;;5.20;99.90;;;;;;5101665;27;19924;-63
2022/11/14 04:14:29;;;;;;;;;;;5.20;99.90;;;;;;5084075;28;19923;-62
2022/11/14 04:16:54;;;;;;;;;;;5.10;99.90;;;;;;5099535;27;19984;-63
2022/11/14 04:19:20;;;;;;;;;;;5.20;99.90;;;;;;5080069;27;19928;-62
2022/11/14 04:21:45;;;;;;;;;;;5.10;99.90;;;;;;5108928;27;19988;-63
2022/11/14 04:24:11;;;;;;;;;;;5.10;99.90;;;;;;5116605;27;19927;-62
2022/11/14 04:26:36;;;;;;;;;;;5.20;99.90;;;;;;5082042;28;19956;-62
2022/11/14 04:29:02;;;;;;;;;;;5.20;99.90;;;;;;5082432;28;19931;-63
2022/11/14 04:31:27;;;;;;;;;;;5.20;99.90;;;;;;5098232;28;20274;-63
2022/11/14 04:33:52;;;;;;;;;;;5.20;99.90;;;;;;5097462;27;20062;-62
2022/11/14 04:36:18;;;;;;;;;;;5.20;99.90;;;;;;5103263;28;20223;-63
2022/11/14 04:38:43;;;;;;;;;;;5.20;99.90;;;;;;5099292;27;19931;-63
2022/11/14 04:41:09;;;;;;;;;;;5.20;99.90;;;;;;5090701;28;20374;-64
2022/11/14 04:43:35;;;;;;;;;;;5.20;99.90;;;;;;5084431;28;20017;-63
2022/11/14 04:46:00;;;;;;;;;;;5.20;99.90;;;;;;5079760;27;19931;-63
2022/11/14 04:48:26;;;;;;;;;;;5.20;99.90;;;;;;5102216;28;20294;-62
2022/11/14 04:50:51;;;;;;;;;;;5.20;99.90;;;;;;5098054;28;19919;-63
2022/11/14 04:53:17;;;;;;;;;;;5.30;99.90;;;;;;5081813;28;20375;-63
2022/11/14 04:55:42;;;;;;;;;;;5.20;99.90;;;;;;5086287;28;19924;-63
2022/11/14 04:58:08;;;;;;;;;;;5.30;99.90;;;;;;5082692;28;20272;-63
2022/11/14 05:00:33;;;;;;;;;;;5.20;99.90;;;;;;5082058;28;19970;-63
2022/11/14 05:02:59;;;;;;;;;;;5.30;99.90;;;;;;5108904;28;19928;-62
2022/11/14 05:05:24;;;;;;;;;;;5.30;99.90;;;;;;5099694;28;20080;-63
2022/11/14 05:07:50;;;;;;;;;;;5.30;99.90;;;;;;5103747;28;20441;-63
2022/11/14 05:10:15;;;;;;;;;;;5.40;99.90;;;;;;5105164;28;20038;-63
2022/11/14 05:12:41;;;;;;;;;;;5.40;99.90;;;;;;5104513;27;21765;-63
2022/11/14 05:15:07;;;;;;;;;;;5.40;99.90;;;;;;5099490;27;20370;-62
2022/11/14 05:17:32;;;;;;;;;;;5.40;99.90;;;;;;5080151;27;19961;-63
2022/11/14 05:19:58;;;;;;;;;;;5.40;99.90;;;;;;5084455;27;19924;-63
2022/11/14 05:22:23;;;;;;;;;;;5.40;99.90;;;;;;5086065;28;20450;-63
2022/11/14 05:24:49;;;;;;;;;;;5.40;99.90;;;;;;5106841;27;19933;-63
2022/11/14 05:27:14;;;;;;;;;;;5.40;99.90;;;;;;5107399;27;19924;-63
2022/11/14 05:29:40;;;;;;;;;;;5.40;99.90;;;;;;5116867;27;19981;-63
2022/11/14 05:32:05;;;;;;;;;;;5.40;99.90;;;;;;5081528;28;20944;-63
2022/11/14 05:34:30;;;;;;;;;;;5.40;99.90;;;;;;5105322;27;20382;-63
2022/11/14 05:36:56;;;;;;;;;;;5.40;99.90;;;;;;5090025;28;19927;-62
2022/11/14 05:39:21;;;;;;;;;;;5.40;99.90;;;;;;5087696;27;19975;-63
2022/11/14 05:41:47;;;;;;;;;;;5.40;99.90;;;;;;5110585;27;19919;-63
2022/11/14 05:44:12;;;;;;;;;;;5.30;99.90;;;;;;5086882;27;19923;-62
2022/11/14 05:46:38;;;;;;;;;;;5.40;99.90;;;;;;5083281;28;19984;-62
2022/11/14 05:49:03;;;;;;;;;;;5.40;99.90;;;;;;5116645;27;19920;-62
2022/11/14 05:51:29;;;;;;;;;;;5.40;99.90;;;;;;5082240;27;20113;-63
2022/11/14 05:53:54;;;;;;;;;;;5.40;99.90;;;;;;5080654;27;19943;-63
2022/11/14 05:56:20;;;;;;;;;;;5.40;99.90;;;;;;5097881;27;20367;-62
2022/11/14 05:58:45;;;;;;;;;;;5.40;99.90;;;;;;5080142;28;19923;-63
2022/11/14 06:01:12;;;;;;;;;;;5.50;99.90;;;;;;5084563;28;19919;-62
2022/11/14 06:03:39;;;;;;;;;;;5.50;99.90;;;;;;5123829;27;19927;-62
2022/11/14 06:06:06;;;;;;;;;;;5.40;99.90;;;;;;5111518;27;19934;-62
2022/11/14 06:08:32;;;;;;;;;;;5.40;99.90;;;;;;5102609;27;19928;-62
2022/11/14 06:11:02;;;;;;;;;;;5.40;99.90;;;;;;5113672;27;19927;-62
2022/11/14 06:13:28;;;;;;;;;;;5.40;99.90;;;;;;5099005;27;19931;-62
2022/11/14 06:15:57;;;;;;;;;;;5.40;99.90;;;;;;5098943;27;19932;-63
2022/11/14 06:18:22;;;;;;;;;;;5.40;99.90;;;;;;5107093;27;20366;-62
2022/11/14 06:20:48;;;;;;;;;;;5.30;99.90;;;;;;5086274;27;19924;-62
2022/11/14 06:23:13;;;;;;;;;;;5.30;99.90;;;;;;5105112;27;20302;-63
2022/11/14 06:25:39;;;;;;;;;;;5.30;99.90;;;;;;5090061;28;20367;-62
2022/11/14 06:28:04;;;;;;;;;;;5.30;99.90;;;;;;5088759;28;20056;-63
2022/11/14 06:30:30;;;;;;;;;;;5.30;99.90;;;;;;5096918;27;19927;-62
2022/11/14 06:32:57;;;;;;;;;;;5.30;99.90;;;;;;5087841;28;19923;-63
2022/11/14 06:35:22;;;;;;;;;;;5.30;99.90;;;;;;5088400;28;19919;-63
2022/11/14 06:37:48;;;;;;;;;;;5.20;99.90;;;;;;5109250;27;20264;-62
2022/11/14 06:40:14;;;;;;;;;;;5.20;99.90;;;;;;5089696;27;19928;-62
2022/11/14 06:42:40;;;;;;;;;;;5.10;99.90;;;;;;5091909;27;20006;-63
2022/11/14 06:45:05;;;;;;;;;;;5.10;99.90;;;;;;5089558;28;20048;-63
2022/11/14 06:47:31;;;;;;;;;;;5.10;99.90;;;;;;5091605;28;19926;-62
2022/11/14 06:49:56;;;;;;;;;;;5.10;99.90;;;;;;5084763;28;19928;-62
2022/11/14 06:52:22;;;;;;;;;;;5.00;99.90;;;;;;5103901;27;19928;-62
2022/11/14 06:54:47;;;;;;;;;;;4.90;99.90;;;;;;5085078;28;19924;-62
2022/11/14 06:57:13;;;;;;;;;;;4.90;99.90;;;;;;5086537;28;20371;-62
2022/11/14 06:59:38;;;;;;;;;;;4.80;99.90;;;;;;5090245;27;19926;-62
2022/11/14 07:02:03;;;;;;;;;;;4.90;99.90;;;;;;5073317;28;20474;-62
2022/11/14 07:04:29;;;;;;;;;;;4.80;99.90;;;;;;5091940;28;19920;-62
2022/11/14 07:06:54;;;;;;;;;;;4.70;99.90;;;;;;5121124;27;20090;-62
2022/11/14 07:09:20;;;;;;;;;;;4.70;99.90;;;;;;5076230;28;20328;-63
2022/11/14 07:11:46;;;;;;;;;;;4.70;99.90;;;;;;5100956;28;20023;-62
2022/11/14 07:14:12;;;;;;;;;;;4.60;99.90;;;;;;5081478;28;20290;-62
2022/11/14 07:16:37;;;;;;;;;;;4.60;99.90;;;;;;5082294;28;19928;-62
2022/11/14 07:19:04;;;;;;;;;;;4.50;99.90;;;;;;5083447;28;20282;-63
2022/11/14 07:21:30;;;;;;;;;;;4.50;99.90;;;;;;5099556;27;19973;-62
2022/11/14 07:23:56;;;;;;;;;;;4.50;99.90;;;;;;5080227;27;19923;-62
2022/11/14 07:26:21;;;;;;;;;;;4.50;99.90;;;;;;5111759;27;19996;-63
2022/11/14 07:28:47;;;;;;;;;;;4.50;99.90;;;;;;5112830;28;19920;-62
2022/11/14 07:31:13;;;;;;;;;;;4.50;99.90;;;;;;5092299;28;19920;-63
2022/11/14 07:33:39;;;;;;;;;;;4.50;99.90;;;;;;5102022;27;19923;-62
2022/11/14 07:36:05;;;;;;;;;;;4.50;99.90;;;;;;5112716;27;20369;-63
2022/11/14 07:38:31;;;;;;;;;;;4.50;99.90;;;;;;5081455;27;20018;-63
2022/11/14 07:41:01;;;;;;;;;;;4.40;99.90;;;;;;5077063;28;20362;-62
2022/11/14 07:43:27;;;;;;;;;;;4.50;99.90;;;;;;5114929;27;19974;-62
2022/11/14 07:45:53;;;;;;;;;;;4.50;99.90;;;;;;5103851;28;19920;-63
2022/11/14 07:48:20;;;;;;;;;;;4.50;99.90;;;;;;5097443;28;19920;-63
2022/11/14 07:50:46;;;;;;;;;;;4.50;99.90;;;;;;5072564;28;19965;-62
2022/11/14 07:53:12;;;;;;;;;;;4.50;99.90;;;;;;5115252;27;19932;-63
2022/11/14 07:55:37;;;;;;;;;;;4.60;99.90;;;;;;5083806;27;20043;-63
2022/11/14 07:58:03;;;;;;;;;;;4.60;99.90;;;;;;5102382;27;19925;-63
2022/11/14 08:00:29;;;;;;;;;;;4.60;99.90;;;;;;5100807;28;19981;-63
2022/11/14 08:02:55;;;;;;;;;;;4.70;99.90;;;;;;5115604;27;20421;-63
2022/11/14 08:05:20;;;;;;;;;;;4.70;99.90;;;;;;5081526;28;20370;-62
2022/11/14 08:07:49;;;;;;;;;;;4.80;99.90;;;;;;5088537;28;20285;-63
2022/11/14 08:10:15;;;;;;;;;;;4.80;99.90;;;;;;5099062;28;19927;-63
2022/11/14 08:12:40;;;;;;;;;;;4.90;99.90;;;;;;5087249;28;20279;-63
2022/11/14 08:15:06;;;;;;;;;;;4.90;99.90;;;;;;5107738;28;20288;-62
2022/11/14 08:17:32;;;;;;;;;;;5.00;99.90;;;;;;5125919;27;19924;-63
2022/11/14 08:19:57;;;;;;;;;;;5.00;99.90;;;;;;5099586;28;19992;-63
2022/11/14 08:22:23;;;;;;;;;;;5.00;99.90;;;;;;5101504;28;19935;-63
2022/11/14 08:24:48;;;;;;;;;;;5.20;99.90;;;;;;5096546;28;20394;-63
2022/11/14 08:27:14;;;;;;;;;;;5.10;99.90;;;;;;5100455;28;19920;-63
2022/11/14 08:29:39;;;;;;;;;;;5.20;99.90;;;;;;5101122;27;20458;-62
2022/11/14 08:32:04;;;;;;;;;;;5.30;99.90;;;;;;5101177;27;20018;-63
2022/11/14 08:34:30;;;;;;;;;;;5.40;99.90;;;;;;5101317;27;20332;-63
2022/11/14 08:36:57;;;;;;;;;;;5.40;99.90;;;;;;5135750;27;19945;-63
2022/11/14 08:39:22;;;;;;;;;;;5.40;99.90;;;;;;5105355;28;19942;-63
2022/11/14 08:41:48;;;;;;;;;;;5.50;99.90;;;;;;5107510;28;19920;-63
2022/11/14 08:44:13;;;;;;;;;;;5.50;99.90;;;;;;5131506;27;19930;-63
2022/11/14 08:46:39;;;;;;;;;;;5.50;99.90;;;;;;5101117;27;19920;-63
2022/11/14 08:49:04;;;;;;;;;;;5.50;99.90;;;;;;5100694;28;19931;-63
2022/11/14 08:51:30;;;;;;;;;;;5.60;99.90;;;;;;5102450;28;19924;-63
2022/11/14 08:53:55;;;;;;;;;;;5.60;99.90;;;;;;5101966;28;20405;-63
2022/11/14 08:56:21;;;;;;;;;;;5.60;99.90;;;;;;5097387;28;19951;-63
2022/11/14 08:58:47;;;;;;;;;;;5.70;99.90;;;;;;5096379;28;19931;-63
2022/11/14 09:01:12;;;;;;;;;;;5.70;99.90;;;;;;5102819;28;19927;-63
2022/11/14 09:03:38;;;;;;;;;;;5.70;99.90;;;;;;5095880;28;19924;-63
2022/11/14 09:06:03;;;;;;;;;;;5.70;99.90;;;;;;5098614;28;19928;-63
2022/11/14 09:08:29;;;;;;;;;;;5.70;99.90;;;;;;5101976;28;20011;-63
2022/11/14 09:10:54;;;;;;;;;;;5.70;99.90;;;;;;5107280;28;19920;-62
2022/11/14 09:13:21;;;;;;;;;;;5.80;99.90;;;;;;5105347;28;19943;-63
2022/11/14 09:15:46;;;;;;;;;;;5.80;99.90;;;;;;5130241;27;19920;-63
2022/11/14 09:18:12;;;;;;;;;;;5.80;99.90;;;;;;5095493;28;19920;-62
2022/11/14 09:20:37;;;;;;;;;;;5.90;99.90;;;;;;5128011;27;19924;-62
2022/11/14 09:23:03;;;;;;;;;;;5.90;99.90;;;;;;5091545;28;19974;-62
2022/11/14 09:25:29;;;;;;;;;;;6.00;99.90;;;;;;5105238;28;19919;-62
2022/11/14 09:27:54;;;;;;;;;;;6.00;99.90;;;;;;5096774;28;19970;-62
2022/11/14 09:30:21;;;;;;;;;;;6.00;99.90;;;;;;5095290;28;19966;-63
2022/11/14 09:32:47;;;;;;;;;;;6.10;99.90;;;;;;5102620;28;19928;-67
2022/11/14 09:35:13;;;;;;;;;;;6.20;99.90;;;;;;5102882;28;19923;-67
2022/11/14 09:37:38;;;;;;;;;;;6.10;99.90;;;;;;5105535;28;19923;-66
2022/11/14 09:40:04;;;;;;;;;;;6.20;99.90;;;;;;5129346;27;20317;-66
2022/11/14 09:42:42;;;;;;;;;;;6.30;99.90;;;;;;5100828;28;19920;-66
2022/11/14 09:45:11;;;;;;;;;;;6.30;99.90;;;;;;5099872;28;20061;-66
2022/11/14 09:47:39;;;;;;;;;;;6.40;99.90;;;;;;5109562;28;19959;-67
2022/11/14 09:50:37;;;;;;;;;;;6.50;99.90;;;;;;5100323;28;19920;-66
2022/11/14 09:53:18;;;;;;;;;;;6.50;99.90;;;;;;5052230;28;20004;-67
2022/11/14 09:55:44;;;;;;;;;;;6.60;99.90;;;;;;5096539;27;20019;-66
2022/11/14 09:58:12;;;;;;;;;;;6.60;99.90;;;;;;5106157;27;20038;-67
2022/11/14 10:00:44;;;;;;;;;;;6.70;99.90;;;;;;5142454;27;20371;-66
2022/11/14 10:03:19;;;;;;;;;;;6.70;99.90;;;;;;5110920;27;19919;-66
2022/11/14 10:06:01;;;;;;;;;;;6.70;99.90;;;;;;5105878;28;19919;-66
2022/11/14 10:08:30;;;;;;;;;;;6.90;99.90;;;;;;5103382;27;19930;-67
2022/11/14 10:10:59;;;;;;;;;;;6.80;99.90;;;;;;5140193;27;19920;-67
2022/11/14 10:13:34;;;;;;;;;;;6.90;99.90;;;;;;5109960;28;19977;-66
2022/11/14 10:16:20;;;;;;;;;;;6.90;99.90;;;;;;5104020;28;20007;-66
2022/11/14 10:18:45;;;;;;;;;;;7.00;99.90;;;;;;5108708;28;19992;-66
2022/11/14 10:21:18;;;;;;;;;;;7.00;99.90;;;;;;5110339;28;20193;-66
2022/11/14 10:23:44;;;;;;;;;;;7.10;99.90;;;;;;5105087;28;19923;-67
2022/11/14 10:26:09;;;;;;;;;;;7.20;99.90;;;;;;5121692;27;19920;-66
2022/11/14 10:29:01;;;;;;;;;;;7.20;99.90;;;;;;5104870;28;19927;-66
2022/11/14 10:31:30;;;;;;;;;;;7.20;99.90;;;;;;5069347;28;20379;-66
2022/11/14 10:34:00;;;;;;;;;;;7.30;99.90;;;;;;5138757;27;19983;-66
2022/11/14 10:36:29;;;;;;;;;;;7.30;99.90;;;;;;5109245;28;19920;-67
2022/11/14 10:39:14;;;;;;;;;;;7.40;99.90;;;;;;5101392;27;19953;-66
2022/11/14 10:41:41;;;;;;;;;;;7.40;99.90;;;;;;5068318;28;20006;-66
2022/11/14 10:44:12;;;;;;;;;;;7.50;99.90;;;;;;5104212;27;19980;-66
2022/11/14 10:46:42;;;;;;;;;;;7.50;99.90;;;;;;5103199;27;19966;-66
2022/11/14 10:49:16;;;;;;;;;;;7.60;99.90;;;;;;5101969;27;19926;-66
2022/11/14 10:51:43;;;;;;;;;;;7.70;99.90;;;;;;5099524;27;19924;-66
2022/11/14 10:54:09;;;;;;;;;;;7.70;99.90;;;;;;5132409;27;19924;-65
2022/11/14 10:56:44;;;;;;;;;;;7.70;99.90;;;;;;5101715;28;19938;-66
2022/11/14 10:59:10;;;;;;;;;;;7.70;99.90;;;;;;5104314;27;19923;-65
2022/11/14 11:01:37;;;;;;;;;;;7.70;99.90;;;;;;5102497;28;19920;-66
2022/11/14 11:04:22;;;;;;;;;;;7.80;99.90;;;;;;5102717;27;20311;-65
2022/11/14 11:06:48;;;;;;;;;;;7.80;99.90;;;;;;5098196;28;19920;-67
2022/11/14 11:12:04;;;;;;;;;;;7.80;99.90;;;;;;5139917;27;20051;-65
2022/11/14 11:14:29;;;;;;;;;;;7.90;99.90;;;;;;5141432;27;19920;-66
2022/11/14 11:17:10;;;;;;;;;;;7.90;99.90;;;;;;5109299;27;20112;-66
2022/11/14 11:19:36;;;;;;;;;;;7.90;99.90;;;;;;5111361;28;19965;-65
2022/11/14 11:22:01;;;;;;;;;;;8.00;99.90;;;;;;5096178;28;20401;-66
2022/11/14 11:24:34;;;;;;;;;;;8.00;99.90;;;;;;5100696;28;20041;-66
2022/11/14 11:27:21;;;;;;;;;;;8.00;99.90;;;;;;5096465;27;20339;-66
2022/11/14 11:30:05;;;;;;;;;;;8.10;99.90;;;;;;5106833;28;19931;-66
2022/11/14 11:32:31;;;;;;;;;;;8.10;99.90;;;;;;5106184;28;19924;-66
2022/11/14 11:34:58;;;;;;;;;;;8.10;99.90;;;;;;5110036;28;20332;-68
2022/11/14 11:37:26;;;;;;;;;;;8.10;99.90;;;;;;5089948;27;20003;-67
2022/11/14 11:39:53;;;;;;;;;;;8.20;99.90;;;;;;5112035;28;19943;-67
2022/11/14 11:42:22;;;;;;;;;;;8.30;99.90;;;;;;5101475;27;20357;-68
2022/11/14 11:44:52;;;;;;;;;;;8.30;99.90;;;;;;5106578;27;20389;-67
2022/11/14 11:47:19;;;;;;;;;;;8.30;99.90;;;;;;5098006;27;19927;-66
2022/11/14 11:49:48;;;;;;;;;;;8.40;99.90;;;;;;5107268;28;20620;-66
2022/11/14 11:52:22;;;;;;;;;;;8.40;99.90;;;;;;5094909;27;19924;-66
2022/11/14 11:54:51;;;;;;;;;;;8.40;99.90;;;;;;5099820;27;19965;-66
2022/11/14 11:57:21;;;;;;;;;;;8.40;99.90;;;;;;5123175;27;20016;-66
2022/11/14 11:59:50;;;;;;;;;;;8.40;99.90;;;;;;5097403;27;19981;-66
2022/11/14 12:02:23;;;;;;;;;;;8.50;99.90;;;;;;5097340;28;19962;-66
2022/11/14 12:04:49;;;;;;;;;;;8.50;99.90;;;;;;5094426;27;19919;-66
2022/11/14 12:07:22;;;;;;;;;;;8.50;99.90;;;;;;5133832;27;20283;-67
2022/11/14 12:09:48;;;;;;;;;;;8.50;99.90;;;;;;5112128;27;19926;-66
2022/11/14 12:12:37;;;;;;;;;;;8.50;99.90;;;;;;5081451;28;19924;-66
2022/11/14 12:15:25;;;;;;;;;;;8.50;99.90;;;;;;5108967;27;19924;-66
2022/11/14 12:18:03;;;;;;;;;;;8.60;99.90;;;;;;5112003;27;19920;-67
2022/11/14 12:20:44;;;;;;;;;;;8.60;99.90;;;;;;5093201;28;19984;-65
2022/11/14 12:23:09;;;;;;;;;;;8.60;99.90;;;;;;5113791;27;19920;-67
2022/11/14 12:25:38;;;;;;;;;;;8.60;99.90;;;;;;5111032;27;20398;-66
2022/11/14 12:28:12;;;;;;;;;;;8.60;99.90;;;;;;5097437;27;20410;-67
2022/11/14 12:30:38;;;;;;;;;;;8.60;99.90;;;;;;5078247;28;19936;-67
2022/11/14 12:33:08;;;;;;;;;;;8.60;99.90;;;;;;5111951;27;20010;-67
2022/11/14 12:35:34;;;;;;;;;;;8.60;99.90;;;;;;5112966;27;20346;-66
2022/11/14 12:38:01;;;;;;;;;;;8.70;99.90;;;;;;5087426;28;19920;-66
2022/11/14 12:40:34;;;;;;;;;;;8.60;99.90;;;;;;5082718;27;19931;-65
2022/11/14 12:43:01;;;;;;;;;;;8.60;99.90;;;;;;5110187;27;20002;-67
2022/11/14 12:45:41;;;;;;;;;;;8.60;99.90;;;;;;5116585;27;20392;-66
2022/11/14 12:48:13;;;;;;;;;;;8.70;99.90;;;;;;5109344;27;20324;-66
2022/11/14 12:50:40;;;;;;;;;;;8.70;99.90;;;;;;5118147;27;20294;-66
2022/11/14 12:53:34;;;;;;;;;;;8.70;99.90;;;;;;5099537;28;19924;-66
2022/11/14 12:56:06;;;;;;;;;;;8.60;99.90;;;;;;5086449;28;19924;-66
2022/11/14 12:58:31;;;;;;;;;;;8.70;99.90;;;;;;5090903;28;19920;-66
2022/11/14 13:01:07;;;;;;;;;;;8.70;99.90;;;;;;5096239;28;20290;-65
2022/11/14 13:03:48;;;;;;;;;;;8.60;99.90;;;;;;5079685;28;19920;-66
2022/11/14 13:06:17;;;;;;;;;;;8.70;99.90;;;;;;5088265;28;20358;-66
2022/11/14 13:08:42;;;;;;;;;;;8.70;99.90;;;;;;5084657;28;20374;-66
2022/11/14 13:21:44;;;;;;;;;;;8.70;99.90;;;;;;5088023;28;19920;-67
2022/11/14 13:22:40;;;;;;;;;;;8.70;99.90;;;;;;5080221;28;19950;-67
2022/11/14 13:25:19;;;;;;;;;;;8.80;99.90;;;;;;5097257;28;19920;-66
2022/11/14 13:27:44;;;;;;;;;;;8.80;99.90;;;;;;5080456;28;19923;-66
2022/11/14 13:30:10;;;;;;;;;;;8.80;99.90;;;;;;5110544;27;20262;-66
2022/11/14 13:32:43;;;;;;;;;;;8.80;99.90;;;;;;5087499;27;20297;-66
2022/11/14 13:35:17;;;;;;;;;;;8.80;99.90;;;;;;5087736;27;19920;-66
2022/11/14 13:37:43;;;;;;;;;;;8.80;99.90;;;;;;5099222;27;19920;-67
2022/11/14 13:40:15;;;;;;;;;;;8.80;99.90;;;;;;5084396;27;20279;-66
2022/11/14 13:42:49;;;;;;;;;;;8.80;99.90;;;;;;5081244;27;19924;-67
2022/11/14 13:45:17;;;;;;;;;;;8.80;99.90;;;;;;5081430;28;19973;-66
2022/11/14 13:47:49;;;;;;;;;;;8.80;99.90;;;;;;5080062;28;19967;-66
2022/11/14 13:50:16;;;;;;;;;;;8.80;99.90;;;;;;5094600;27;20289;-66
2022/11/14 13:52:43;;;;;;;;;;;8.80;99.90;;;;;;5078377;28;19935;-66
2022/11/14 13:55:29;;;;;;;;;;;8.70;99.90;;;;;;5089602;28;19928;-66
2022/11/14 13:58:08;;;;;;;;;;;8.70;99.90;;;;;;5091692;28;19967;-66
2022/11/14 14:00:53;;;;;;;;;;;8.70;99.90;;;;;;5127343;27;19930;-67
2022/11/14 14:03:27;;;;;;;;;;;8.60;99.90;;;;;;5117876;27;20010;-67
2022/11/14 14:05:59;;;;;;;;;;;8.60;99.90;;;;;;5079292;28;19986;-66
2022/11/14 14:08:24;;;;;;;;;;;8.60;99.90;;;;;;5093661;28;19920;-67
2022/11/14 14:11:09;;;;;;;;;;;8.60;99.90;;;;;;5110138;27;20286;-66
2022/11/14 14:13:57;;;;;;;;;;;8.60;99.90;;;;;;5098858;27;19927;-66
2022/11/14 14:16:40;;;;;;;;;;;8.60;99.90;;;;;;5097614;28;19919;-66
2022/11/14 14:19:06;;;;;;;;;;;8.60;99.90;;;;;;5104488;27;19927;-66
2022/11/14 14:21:50;;;;;;;;;;;8.60;99.90;;;;;;5098602;28;20398;-67
2022/11/14 14:24:34;;;;;;;;;;;8.50;99.90;;;;;;5095907;28;19970;-67
2022/11/14 14:27:02;;;;;;;;;;;8.50;99.90;;;;;;5097544;27;21071;-67
2022/11/14 14:29:47;;;;;;;;;;;8.40;99.90;;;;;;5098664;27;19966;-67
2022/11/14 14:32:14;;;;;;;;;;;8.40;99.90;;;;;;5130995;27;19927;-66
2022/11/14 14:34:41;;;;;;;;;;;8.30;99.90;;;;;;5097215;27;20005;-66
2022/11/14 14:37:17;;;;;;;;;;;8.40;99.90;;;;;;5104351;27;19927;-67
2022/11/14 14:40:04;;;;;;;;;;;8.30;99.90;;;;;;5098166;27;20031;-66
2022/11/14 14:42:37;;;;;;;;;;;8.30;99.90;;;;;;5132996;27;19920;-67
2022/11/14 14:45:03;;;;;;;;;;;8.30;99.90;;;;;;5132528;27;19955;-67
2022/11/14 14:47:35;;;;;;;;;;;8.30;99.90;;;;;;5099802;27;20283;-67